sensor_id;sensor_type;location;lat;lon;timestamp;temperature;humidity
8487;DHT22;4280;50.534;8.708;2024-03-08T00:01:30;1.20;1.00
8487;DHT22;4280;50.534;8.708;2024-03-08T00:03:56;1.10;1.00
8487;DHT22;4280;50.534;8.708;2024-03-08T00:06:22;1.10;1.00
8487;DHT22;4280;50.534;8.708;2024-03-08T00:08:48;1.10;1.00
8487;DHT22;4280;50.534;8.708;2024-03-08T00:11:13;1.00;1.00
8487;DHT22;4280;50.534;8.708;2024-03-08T00:13:39;1.00;1.00
8487;DHT22;4280;50.534;8.708;2024-03-08T00:16:05;1.10;1.00
8487;DHT22;4280;50.534;8.708;2024-03-08T00:18:30;1.10;1.00
8487;DHT22;4280;50.534;8.708;2024-03-08T00:20:56;1.00;1.00
8487;DHT22;4280;50.534;8.708;2024-03-08T00:23:22;1.00;1.00
8487;DHT22;4280;50.534;8.708;2024-03-08T00:25:49;0.80;1.00
8487;DHT22;4280;50.534;8.708;2024-03-08T00:28:15;0.80;1.00
8487;DHT22;4280;50.534;8.708;2024-03-08T00:30:42;0.70;1.00
8487;DHT22;4280;50.534;8.708;2024-03-08T00:33:08;0.50;1.00
8487;DHT22;4280;50.534;8.708;2024-03-08T00:35:33;0.40;1.00
8487;DHT22;4280;50.534;8.708;2024-03-08T00:37:59;0.40;1.00
8487;DHT22;4280;50.534;8.708;2024-03-08T00:40:25;0.20;1.00
8487;DHT22;4280;50.534;8.708;2024-03-08T00:42:50;0.20;1.00
8487;DHT22;4280;50.534;8.708;2024-03-08T00:45:18;0.10;1.00
8487;DHT22;4280;50.534;8.708;2024-03-08T00:47:44;0.00;1.00
8487;DHT22;4280;50.534;8.708;2024-03-08T00:50:10;0.10;1.00
8487;DHT22;4280;50.534;8.708;2024-03-08T00:52:36;0.00;1.00
8487;DHT22;4280;50.534;8.708;2024-03-08T00:55:02;-0.10;1.00
8487;DHT22;4280;50.534;8.708;2024-03-08T00:57:28;-0.10;1.00
8487;DHT22;4280;50.534;8.708;2024-03-08T00:59:55;-0.20;1.00
8487;DHT22;4280;50.534;8.708;2024-03-08T01:02:21;-0.30;1.00
8487;DHT22;4280;50.534;8.708;2024-03-08T01:04:48;-0.30;1.00
8487;DHT22;4280;50.534;8.708;2024-03-08T01:07:14;-0.30;1.00
8487;DHT22;4280;50.534;8.708;2024-03-08T01:09:40;-0.30;1.00
8487;DHT22;4280;50.534;8.708;2024-03-08T01:12:06;-0.30;1.00
8487;DHT22;4280;50.534;8.708;2024-03-08T01:14:32;-0.30;1.00
8487;DHT22;4280;50.534;8.708;2024-03-08T01:16:58;-0.30;1.00
8487;DHT22;4280;50.534;8.708;2024-03-08T01:19:24;-0.30;1.00
8487;DHT22;4280;50.534;8.708;2024-03-08T01:21:50;-0.30;1.00
8487;DHT22;4280;50.534;8.708;2024-03-08T01:24:16;-0.30;1.00
8487;DHT22;4280;50.534;8.708;2024-03-08T01:26:42;-0.40;1.00
8487;DHT22;4280;50.534;8.708;2024-03-08T01:29:08;-0.50;1.00
8487;DHT22;4280;50.534;8.708;2024-03-08T01:31:33;-0.60;1.00
8487;DHT22;4280;50.534;8.708;2024-03-08T01:33:59;-0.60;1.00
8487;DHT22;4280;50.534;8.708;2024-03-08T01:36:25;-0.60;1.00
8487;DHT22;4280;50.534;8.708;2024-03-08T01:38:51;-0.80;1.00
8487;DHT22;4280;50.534;8.708;2024-03-08T01:41:17;-0.90;1.00
8487;DHT22;4280;50.534;8.708;2024-03-08T01:43:43;-0.80;1.00
8487;DHT22;4280;50.534;8.708;2024-03-08T01:46:12;-0.90;1.00
8487;DHT22;4280;50.534;8.708;2024-03-08T01:48:42;-0.80;1.00
8487;DHT22;4280;50.534;8.708;2024-03-08T01:51:07;-0.80;1.00
8487;DHT22;4280;50.534;8.708;2024-03-08T01:53:34;-0.80;1.00
8487;DHT22;4280;50.534;8.708;2024-03-08T01:56:00;-0.80;1.00
8487;DHT22;4280;50.534;8.708;2024-03-08T01:58:29;-0.80;1.00
8487;DHT22;4280;50.534;8.708;2024-03-08T02:00:56;-0.90;1.00
8487;DHT22;4280;50.534;8.708;2024-03-08T02:03:23;-0.90;1.00
8487;DHT22;4280;50.534;8.708;2024-03-08T02:05:49;-0.90;1.00
8487;DHT22;4280;50.534;8.708;2024-03-08T02:08:17;-0.90;1.00
8487;DHT22;4280;50.534;8.708;2024-03-08T02:10:44;-0.90;1.00
8487;DHT22;4280;50.534;8.708;2024-03-08T02:13:11;-1.00;1.00
8487;DHT22;4280;50.534;8.708;2024-03-08T02:15:57;-0.90;1.00
8487;DHT22;4280;50.534;8.708;2024-03-08T02:18:28;-1.00;1.00
8487;DHT22;4280;50.534;8.708;2024-03-08T02:20:55;-1.00;1.00
8487;DHT22;4280;50.534;8.708;2024-03-08T02:23:22;-1.00;1.00
8487;DHT22;4280;50.534;8.708;2024-03-08T02:25:50;-1.10;1.00
8487;DHT22;4280;50.534;8.708;2024-03-08T02:28:17;-1.10;1.00
8487;DHT22;4280;50.534;8.708;2024-03-08T02:30:46;-1.10;1.00
8487;DHT22;4280;50.534;8.708;2024-03-08T02:33:14;-1.30;1.00
8487;DHT22;4280;50.534;8.708;2024-03-08T02:35:44;-1.40;1.00
8487;DHT22;4280;50.534;8.708;2024-03-08T02:38:13;-1.50;1.00
8487;DHT22;4280;50.534;8.708;2024-03-08T02:40:44;-1.50;1.00
8487;DHT22;4280;50.534;8.708;2024-03-08T02:43:11;-1.60;1.00
8487;DHT22;4280;50.534;8.708;2024-03-08T02:45:37;-1.50;1.00
8487;DHT22;4280;50.534;8.708;2024-03-08T02:48:04;-1.50;1.00
8487;DHT22;4280;50.534;8.708;2024-03-08T02:50:32;-1.60;1.00
8487;DHT22;4280;50.534;8.708;2024-03-08T02:52:58;-1.50;1.00
8487;DHT22;4280;50.534;8.708;2024-03-08T02:55:24;-1.60;1.00
8487;DHT22;4280;50.534;8.708;2024-03-08T02:57:51;-1.50;1.00
8487;DHT22;4280;50.534;8.708;2024-03-08T03:00:18;-1.50;1.00
8487;DHT22;4280;50.534;8.708;2024-03-08T03:02:45;-1.50;1.00
8487;DHT22;4280;50.534;8.708;2024-03-08T03:05:11;-1.30;1.00
8487;DHT22;4280;50.534;8.708;2024-03-08T03:07:37;-1.40;1.00
8487;DHT22;4280;50.534;8.708;2024-03-08T03:10:03;-1.50;1.00
8487;DHT22;4280;50.534;8.708;2024-03-08T03:12:31;-1.50;1.00
8487;DHT22;4280;50.534;8.708;2024-03-08T03:15:00;-1.60;1.00
8487;DHT22;4280;50.534;8.708;2024-03-08T03:17:26;-1.50;1.00
8487;DHT22;4280;50.534;8.708;2024-03-08T03:19:52;-1.40;1.00
8487;DHT22;4280;50.534;8.708;2024-03-08T03:22:19;-1.50;1.00
8487;DHT22;4280;50.534;8.708;2024-03-08T03:24:45;-1.40;1.00
8487;DHT22;4280;50.534;8.708;2024-03-08T03:27:17;-1.40;1.00
8487;DHT22;4280;50.534;8.708;2024-03-08T03:29:43;-1.40;1.00
8487;DHT22;4280;50.534;8.708;2024-03-08T03:32:13;-1.40;1.00
8487;DHT22;4280;50.534;8.708;2024-03-08T03:34:39;-1.60;1.00
8487;DHT22;4280;50.534;8.708;2024-03-08T03:37:05;-1.60;1.00
8487;DHT22;4280;50.534;8.708;2024-03-08T03:39:38;-1.60;1.00
8487;DHT22;4280;50.534;8.708;2024-03-08T03:42:15;-1.60;1.00
8487;DHT22;4280;50.534;8.708;2024-03-08T03:44:44;-1.60;1.00
8487;DHT22;4280;50.534;8.708;2024-03-08T03:47:10;-1.70;1.00
8487;DHT22;4280;50.534;8.708;2024-03-08T03:49:36;-1.60;1.00
8487;DHT22;4280;50.534;8.708;2024-03-08T03:52:02;-1.80;1.00
8487;DHT22;4280;50.534;8.708;2024-03-08T03:54:30;-1.90;1.00
8487;DHT22;4280;50.534;8.708;2024-03-08T03:56:56;-2.00;1.00
8487;DHT22;4280;50.534;8.708;2024-03-08T03:59:21;-2.10;1.00
8487;DHT22;4280;50.534;8.708;2024-03-08T04:01:47;-2.10;1.00
8487;DHT22;4280;50.534;8.708;2024-03-08T04:04:15;-2.20;1.00
8487;DHT22;4280;50.534;8.708;2024-03-08T04:06:41;-2.10;1.00
8487;DHT22;4280;50.534;8.708;2024-03-08T04:09:07;-2.10;1.00
8487;DHT22;4280;50.534;8.708;2024-03-08T04:11:33;-2.10;1.00
8487;DHT22;4280;50.534;8.708;2024-03-08T04:13:58;-2.00;1.00
8487;DHT22;4280;50.534;8.708;2024-03-08T04:16:24;-2.00;1.00
8487;DHT22;4280;50.534;8.708;2024-03-08T04:18:51;-2.00;1.00
8487;DHT22;4280;50.534;8.708;2024-03-08T04:21:17;-2.00;1.00
8487;DHT22;4280;50.534;8.708;2024-03-08T04:23:45;-2.00;1.00
8487;DHT22;4280;50.534;8.708;2024-03-08T04:26:11;-2.00;1.00
8487;DHT22;4280;50.534;8.708;2024-03-08T04:28:37;-2.00;1.00
8487;DHT22;4280;50.534;8.708;2024-03-08T04:31:03;-2.00;1.00
8487;DHT22;4280;50.534;8.708;2024-03-08T04:33:29;-2.00;1.00
8487;DHT22;4280;50.534;8.708;2024-03-08T04:35:55;-2.10;1.00
8487;DHT22;4280;50.534;8.708;2024-03-08T04:38:21;-2.10;1.00
8487;DHT22;4280;50.534;8.708;2024-03-08T04:40:47;-2.10;1.00
8487;DHT22;4280;50.534;8.708;2024-03-08T04:43:14;-1.80;1.00
8487;DHT22;4280;50.534;8.708;2024-03-08T04:45:40;-1.80;1.00
8487;DHT22;4280;50.534;8.708;2024-03-08T04:48:09;-1.90;1.00
8487;DHT22;4280;50.534;8.708;2024-03-08T04:50:34;-2.00;1.00
8487;DHT22;4280;50.534;8.708;2024-03-08T04:53:00;-2.00;1.00
8487;DHT22;4280;50.534;8.708;2024-03-08T04:55:26;-2.00;1.00
8487;DHT22;4280;50.534;8.708;2024-03-08T04:57:51;-2.00;1.00
8487;DHT22;4280;50.534;8.708;2024-03-08T05:00:18;-2.10;1.00
8487;DHT22;4280;50.534;8.708;2024-03-08T05:02:44;-2.10;1.00
8487;DHT22;4280;50.534;8.708;2024-03-08T05:05:10;-2.10;1.00
8487;DHT22;4280;50.534;8.708;2024-03-08T05:07:39;-2.20;1.00
8487;DHT22;4280;50.534;8.708;2024-03-08T05:10:06;-2.20;1.00
8487;DHT22;4280;50.534;8.708;2024-03-08T05:12:33;-2.40;1.00
8487;DHT22;4280;50.534;8.708;2024-03-08T05:14:58;-2.50;1.00
8487;DHT22;4280;50.534;8.708;2024-03-08T05:17:25;-2.50;1.00
8487;DHT22;4280;50.534;8.708;2024-03-08T05:19:51;-2.50;1.00
8487;DHT22;4280;50.534;8.708;2024-03-08T05:22:17;-2.50;1.00
8487;DHT22;4280;50.534;8.708;2024-03-08T05:24:44;-2.00;1.00
8487;DHT22;4280;50.534;8.708;2024-03-08T05:27:10;-2.10;1.00
8487;DHT22;4280;50.534;8.708;2024-03-08T05:29:36;-2.20;1.00
8487;DHT22;4280;50.534;8.708;2024-03-08T05:32:03;-2.20;1.00
8487;DHT22;4280;50.534;8.708;2024-03-08T05:34:29;-2.20;1.00
8487;DHT22;4280;50.534;8.708;2024-03-08T05:36:55;-2.20;1.00
8487;DHT22;4280;50.534;8.708;2024-03-08T05:39:21;-2.20;1.00
8487;DHT22;4280;50.534;8.708;2024-03-08T05:41:47;-2.30;1.00
8487;DHT22;4280;50.534;8.708;2024-03-08T05:44:13;-2.30;1.00
8487;DHT22;4280;50.534;8.708;2024-03-08T05:46:39;-2.40;1.00
8487;DHT22;4280;50.534;8.708;2024-03-08T05:49:06;-2.40;1.00
8487;DHT22;4280;50.534;8.708;2024-03-08T05:51:32;-2.40;1.00
8487;DHT22;4280;50.534;8.708;2024-03-08T05:54:03;-2.50;1.00
8487;DHT22;4280;50.534;8.708;2024-03-08T05:56:31;-2.60;1.00
8487;DHT22;4280;50.534;8.708;2024-03-08T05:58:57;-2.60;1.00
8487;DHT22;4280;50.534;8.708;2024-03-08T06:01:26;-2.60;1.00
8487;DHT22;4280;50.534;8.708;2024-03-08T06:03:53;-2.50;1.00
8487;DHT22;4280;50.534;8.708;2024-03-08T06:06:21;-2.50;1.00
8487;DHT22;4280;50.534;8.708;2024-03-08T06:08:48;-2.50;1.00
8487;DHT22;4280;50.534;8.708;2024-03-08T06:11:18;-2.50;1.00
8487;DHT22;4280;50.534;8.708;2024-03-08T06:13:45;-2.40;1.00
8487;DHT22;4280;50.534;8.708;2024-03-08T06:16:11;-2.30;1.00
8487;DHT22;4280;50.534;8.708;2024-03-08T06:18:38;-2.30;1.00
8487;DHT22;4280;50.534;8.708;2024-03-08T06:21:05;-2.30;1.00
8487;DHT22;4280;50.534;8.708;2024-03-08T06:23:35;-2.20;1.00
8487;DHT22;4280;50.534;8.708;2024-03-08T06:26:07;-2.10;1.00
8487;DHT22;4280;50.534;8.708;2024-03-08T06:28:33;-2.10;1.00
8487;DHT22;4280;50.534;8.708;2024-03-08T06:31:00;-2.10;1.00
8487;DHT22;4280;50.534;8.708;2024-03-08T06:33:26;-2.00;1.00
8487;DHT22;4280;50.534;8.708;2024-03-08T06:35:53;-2.00;1.00
8487;DHT22;4280;50.534;8.708;2024-03-08T06:38:25;-2.00;1.00
8487;DHT22;4280;50.534;8.708;2024-03-08T06:40:52;-1.90;1.00
8487;DHT22;4280;50.534;8.708;2024-03-08T06:43:18;-1.80;1.00
8487;DHT22;4280;50.534;8.708;2024-03-08T06:45:47;-1.60;1.00
8487;DHT22;4280;50.534;8.708;2024-03-08T06:48:19;-1.50;1.00
8487;DHT22;4280;50.534;8.708;2024-03-08T06:50:46;-1.30;1.00
8487;DHT22;4280;50.534;8.708;2024-03-08T06:53:12;-1.20;1.00
8487;DHT22;4280;50.534;8.708;2024-03-08T06:55:39;-1.20;1.00
8487;DHT22;4280;50.534;8.708;2024-03-08T06:58:05;-1.10;1.00
8487;DHT22;4280;50.534;8.708;2024-03-08T07:00:32;-1.10;1.00
8487;DHT22;4280;50.534;8.708;2024-03-08T07:02:58;-0.90;1.00
8487;DHT22;4280;50.534;8.708;2024-03-08T07:05:28;-0.80;1.00
8487;DHT22;4280;50.534;8.708;2024-03-08T07:07:54;-0.70;1.00
8487;DHT22;4280;50.534;8.708;2024-03-08T07:10:23;-0.80;1.00
8487;DHT22;4280;50.534;8.708;2024-03-08T07:12:50;-0.60;1.00
8487;DHT22;4280;50.534;8.708;2024-03-08T07:15:16;-0.50;1.00
8487;DHT22;4280;50.534;8.708;2024-03-08T07:17:47;-0.30;1.00
8487;DHT22;4280;50.534;8.708;2024-03-08T07:20:14;-0.20;1.00
8487;DHT22;4280;50.534;8.708;2024-03-08T07:22:41;0.00;1.00
8487;DHT22;4280;50.534;8.708;2024-03-08T07:25:08;0.20;1.00
8487;DHT22;4280;50.534;8.708;2024-03-08T07:27:54;0.30;1.00
8487;DHT22;4280;50.534;8.708;2024-03-08T07:30:22;0.30;1.00
8487;DHT22;4280;50.534;8.708;2024-03-08T07:33:09;0.40;1.00
8487;DHT22;4280;50.534;8.708;2024-03-08T07:35:37;0.60;1.00
8487;DHT22;4280;50.534;8.708;2024-03-08T07:38:05;0.70;1.00
8487;DHT22;4280;50.534;8.708;2024-03-08T07:40:32;0.90;1.00
8487;DHT22;4280;50.534;8.708;2024-03-08T07:43:00;1.10;1.00
8487;DHT22;4280;50.534;8.708;2024-03-08T07:45:26;1.20;1.00
8487;DHT22;4280;50.534;8.708;2024-03-08T07:47:52;1.20;1.00
8487;DHT22;4280;50.534;8.708;2024-03-08T07:50:18;1.20;1.00
8487;DHT22;4280;50.534;8.708;2024-03-08T07:52:44;1.30;1.00
8487;DHT22;4280;50.534;8.708;2024-03-08T07:55:10;1.30;1.00
8487;DHT22;4280;50.534;8.708;2024-03-08T07:57:36;1.40;1.00
8487;DHT22;4280;50.534;8.708;2024-03-08T08:00:05;1.50;1.00
8487;DHT22;4280;50.534;8.708;2024-03-08T08:02:33;1.60;1.00
8487;DHT22;4280;50.534;8.708;2024-03-08T08:05:01;1.80;1.00
8487;DHT22;4280;50.534;8.708;2024-03-08T08:07:27;2.00;1.00
8487;DHT22;4280;50.534;8.708;2024-03-08T08:09:53;2.10;1.00
8487;DHT22;4280;50.534;8.708;2024-03-08T08:12:19;2.50;1.00
8487;DHT22;4280;50.534;8.708;2024-03-08T08:14:44;3.00;1.00
8487;DHT22;4280;50.534;8.708;2024-03-08T08:17:10;3.10;1.00
8487;DHT22;4280;50.534;8.708;2024-03-08T08:19:37;3.30;1.00
8487;DHT22;4280;50.534;8.708;2024-03-08T08:22:04;3.50;1.00
8487;DHT22;4280;50.534;8.708;2024-03-08T08:24:30;3.80;1.00
8487;DHT22;4280;50.534;8.708;2024-03-08T08:26:55;4.00;1.00
8487;DHT22;4280;50.534;8.708;2024-03-08T08:29:21;4.20;1.00
8487;DHT22;4280;50.534;8.708;2024-03-08T08:31:48;4.30;1.00
8487;DHT22;4280;50.534;8.708;2024-03-08T08:34:16;4.40;1.00
8487;DHT22;4280;50.534;8.708;2024-03-08T08:36:44;4.50;1.00
8487;DHT22;4280;50.534;8.708;2024-03-08T08:39:10;4.50;1.00
8487;DHT22;4280;50.534;8.708;2024-03-08T08:41:39;4.70;1.00
8487;DHT22;4280;50.534;8.708;2024-03-08T08:44:07;4.70;1.00
8487;DHT22;4280;50.534;8.708;2024-03-08T08:46:38;4.80;1.00
8487;DHT22;4280;50.534;8.708;2024-03-08T08:49:05;4.70;1.00
8487;DHT22;4280;50.534;8.708;2024-03-08T08:51:31;4.80;1.00
8487;DHT22;4280;50.534;8.708;2024-03-08T08:53:59;5.00;1.00
8487;DHT22;4280;50.534;8.708;2024-03-08T08:56:25;5.00;1.00
8487;DHT22;4280;50.534;8.708;2024-03-08T08:58:51;5.10;1.00
8487;DHT22;4280;50.534;8.708;2024-03-08T09:01:19;5.20;1.00
8487;DHT22;4280;50.534;8.708;2024-03-08T09:03:45;5.30;1.00
8487;DHT22;4280;50.534;8.708;2024-03-08T09:06:12;5.20;1.00
8487;DHT22;4280;50.534;8.708;2024-03-08T09:08:39;5.30;1.00
8487;DHT22;4280;50.534;8.708;2024-03-08T09:11:05;5.40;1.00
8487;DHT22;4280;50.534;8.708;2024-03-08T09:13:31;5.60;1.00
8487;DHT22;4280;50.534;8.708;2024-03-08T09:15:59;5.70;1.00
8487;DHT22;4280;50.534;8.708;2024-03-08T09:18:25;5.80;1.00
8487;DHT22;4280;50.534;8.708;2024-03-08T09:20:51;5.90;1.00
8487;DHT22;4280;50.534;8.708;2024-03-08T09:23:22;6.10;1.00
8487;DHT22;4280;50.534;8.708;2024-03-08T09:25:47;6.10;1.00
8487;DHT22;4280;50.534;8.708;2024-03-08T09:28:13;6.10;1.00
8487;DHT22;4280;50.534;8.708;2024-03-08T09:30:39;6.20;1.00
8487;DHT22;4280;50.534;8.708;2024-03-08T09:33:05;6.30;1.00
8487;DHT22;4280;50.534;8.708;2024-03-08T09:35:31;6.50;1.00
8487;DHT22;4280;50.534;8.708;2024-03-08T09:37:57;6.50;1.00
8487;DHT22;4280;50.534;8.708;2024-03-08T09:40:23;6.40;1.00
8487;DHT22;4280;50.534;8.708;2024-03-08T09:42:51;6.50;1.00
8487;DHT22;4280;50.534;8.708;2024-03-08T09:45:20;6.80;1.00
8487;DHT22;4280;50.534;8.708;2024-03-08T09:47:50;6.70;1.00
8487;DHT22;4280;50.534;8.708;2024-03-08T09:50:16;6.70;1.00
8487;DHT22;4280;50.534;8.708;2024-03-08T09:52:43;7.00;1.00
8487;DHT22;4280;50.534;8.708;2024-03-08T09:55:12;6.90;1.00
8487;DHT22;4280;50.534;8.708;2024-03-08T09:57:38;6.80;1.00
8487;DHT22;4280;50.534;8.708;2024-03-08T10:00:05;7.00;1.00
8487;DHT22;4280;50.534;8.708;2024-03-08T10:02:46;7.20;1.00
8487;DHT22;4280;50.534;8.708;2024-03-08T10:05:13;7.10;1.00
8487;DHT22;4280;50.534;8.708;2024-03-08T10:07:39;7.30;1.00
8487;DHT22;4280;50.534;8.708;2024-03-08T10:10:05;7.60;1.00
8487;DHT22;4280;50.534;8.708;2024-03-08T10:12:34;7.50;1.00
8487;DHT22;4280;50.534;8.708;2024-03-08T10:15:00;7.50;1.00
8487;DHT22;4280;50.534;8.708;2024-03-08T10:17:26;7.50;1.00
8487;DHT22;4280;50.534;8.708;2024-03-08T10:19:52;7.50;1.00
8487;DHT22;4280;50.534;8.708;2024-03-08T10:22:19;7.30;1.00
8487;DHT22;4280;50.534;8.708;2024-03-08T10:24:47;7.50;1.00
8487;DHT22;4280;50.534;8.708;2024-03-08T10:27:16;7.40;1.00
8487;DHT22;4280;50.534;8.708;2024-03-08T10:29:42;7.50;1.00
8487;DHT22;4280;50.534;8.708;2024-03-08T10:32:09;7.60;1.00
8487;DHT22;4280;50.534;8.708;2024-03-08T10:34:35;7.80;1.00
8487;DHT22;4280;50.534;8.708;2024-03-08T10:37:04;7.40;1.00
8487;DHT22;4280;50.534;8.708;2024-03-08T10:39:34;7.60;1.00
8487;DHT22;4280;50.534;8.708;2024-03-08T10:42:03;7.70;1.00
8487;DHT22;4280;50.534;8.708;2024-03-08T10:44:32;7.70;1.00
8487;DHT22;4280;50.534;8.708;2024-03-08T10:47:26;7.70;1.00
8487;DHT22;4280;50.534;8.708;2024-03-08T10:50:04;7.80;1.00
8487;DHT22;4280;50.534;8.708;2024-03-08T10:52:42;8.00;1.00
8487;DHT22;4280;50.534;8.708;2024-03-08T10:55:09;8.00;1.00
8487;DHT22;4280;50.534;8.708;2024-03-08T10:57:38;7.90;1.00
8487;DHT22;4280;50.534;8.708;2024-03-08T11:00:06;8.10;1.00
8487;DHT22;4280;50.534;8.708;2024-03-08T11:02:35;8.10;1.00
8487;DHT22;4280;50.534;8.708;2024-03-08T11:05:03;8.00;1.00
8487;DHT22;4280;50.534;8.708;2024-03-08T11:07:34;8.10;1.00
8487;DHT22;4280;50.534;8.708;2024-03-08T11:10:02;8.20;1.00
8487;DHT22;4280;50.534;8.708;2024-03-08T11:12:36;8.20;1.00
8487;DHT22;4280;50.534;8.708;2024-03-08T11:15:12;8.50;1.00
8487;DHT22;4280;50.534;8.708;2024-03-08T11:17:48;8.30;1.00
8487;DHT22;4280;50.534;8.708;2024-03-08T11:20:16;8.50;1.00
8487;DHT22;4280;50.534;8.708;2024-03-08T11:22:51;8.60;1.00
8487;DHT22;4280;50.534;8.708;2024-03-08T11:28:08;8.50;1.00
8487;DHT22;4280;50.534;8.708;2024-03-08T11:30:42;8.60;1.00
8487;DHT22;4280;50.534;8.708;2024-03-08T11:35:38;8.50;1.00
8487;DHT22;4280;50.534;8.708;2024-03-08T11:38:08;8.70;1.00
8487;DHT22;4280;50.534;8.708;2024-03-08T11:40:35;8.60;1.00
8487;DHT22;4280;50.534;8.708;2024-03-08T11:43:01;8.60;1.00
8487;DHT22;4280;50.534;8.708;2024-03-08T11:45:35;8.60;1.00
8487;DHT22;4280;50.534;8.708;2024-03-08T11:48:04;8.60;1.00
8487;DHT22;4280;50.534;8.708;2024-03-08T11:50:30;8.80;1.00
8487;DHT22;4280;50.534;8.708;2024-03-08T11:53:04;8.70;1.00
8487;DHT22;4280;50.534;8.708;2024-03-08T11:55:31;8.60;1.00
8487;DHT22;4280;50.534;8.708;2024-03-08T11:58:02;8.80;1.00
8487;DHT22;4280;50.534;8.708;2024-03-08T12:00:28;8.80;1.00
8487;DHT22;4280;50.534;8.708;2024-03-08T12:03:09;8.80;1.00
8487;DHT22;4280;50.534;8.708;2024-03-08T12:05:35;9.00;1.00
8487;DHT22;4280;50.534;8.708;2024-03-08T12:08:05;9.10;1.00
8487;DHT22;4280;50.534;8.708;2024-03-08T12:10:33;9.00;1.00
8487;DHT22;4280;50.534;8.708;2024-03-08T12:13:00;8.90;1.00
8487;DHT22;4280;50.534;8.708;2024-03-08T12:15:27;8.80;1.00
8487;DHT22;4280;50.534;8.708;2024-03-08T12:17:54;8.90;1.00
8487;DHT22;4280;50.534;8.708;2024-03-08T12:20:23;9.10;1.00
8487;DHT22;4280;50.534;8.708;2024-03-08T12:22:54;9.00;1.00
8487;DHT22;4280;50.534;8.708;2024-03-08T12:25:26;9.00;1.00
8487;DHT22;4280;50.534;8.708;2024-03-08T12:27:52;9.00;1.00
8487;DHT22;4280;50.534;8.708;2024-03-08T12:30:26;9.10;1.00
8487;DHT22;4280;50.534;8.708;2024-03-08T12:32:57;9.10;1.00
8487;DHT22;4280;50.534;8.708;2024-03-08T12:35:29;9.10;1.00
8487;DHT22;4280;50.534;8.708;2024-03-08T12:37:56;9.20;1.00
8487;DHT22;4280;50.534;8.708;2024-03-08T12:40:32;9.30;1.00
8487;DHT22;4280;50.534;8.708;2024-03-08T12:43:00;8.90;1.00
8487;DHT22;4280;50.534;8.708;2024-03-08T12:45:27;9.10;1.00
8487;DHT22;4280;50.534;8.708;2024-03-08T12:47:54;9.20;1.00
8487;DHT22;4280;50.534;8.708;2024-03-08T12:50:21;9.20;1.00
8487;DHT22;4280;50.534;8.708;2024-03-08T12:52:47;9.20;1.00
8487;DHT22;4280;50.534;8.708;2024-03-08T12:55:18;9.40;1.00
8487;DHT22;4280;50.534;8.708;2024-03-08T12:57:44;9.40;1.00
8487;DHT22;4280;50.534;8.708;2024-03-08T13:00:11;9.20;1.00
8487;DHT22;4280;50.534;8.708;2024-03-08T13:02:48;9.40;1.00
8487;DHT22;4280;50.534;8.708;2024-03-08T13:05:15;9.30;1.00
8487;DHT22;4280;50.534;8.708;2024-03-08T13:07:44;9.50;1.00
8487;DHT22;4280;50.534;8.708;2024-03-08T13:10:15;9.30;1.00
8487;DHT22;4280;50.534;8.708;2024-03-08T13:12:44;9.30;1.00
8487;DHT22;4280;50.534;8.708;2024-03-08T13:15:12;9.30;1.00
8487;DHT22;4280;50.534;8.708;2024-03-08T13:17:45;9.40;1.00
8487;DHT22;4280;50.534;8.708;2024-03-08T13:20:13;9.50;1.00
8487;DHT22;4280;50.534;8.708;2024-03-08T13:22:43;9.40;1.00
8487;DHT22;4280;50.534;8.708;2024-03-08T13:25:09;9.40;1.00
8487;DHT22;4280;50.534;8.708;2024-03-08T13:27:42;9.40;1.00
8487;DHT22;4280;50.534;8.708;2024-03-08T13:30:11;9.40;1.00
8487;DHT22;4280;50.534;8.708;2024-03-08T13:32:42;9.20;1.00
8487;DHT22;4280;50.534;8.708;2024-03-08T13:35:11;9.30;1.00
8487;DHT22;4280;50.534;8.708;2024-03-08T13:37:41;9.50;1.00
8487;DHT22;4280;50.534;8.708;2024-03-08T13:40:09;9.60;1.00
8487;DHT22;4280;50.534;8.708;2024-03-08T13:42:40;9.60;1.00
8487;DHT22;4280;50.534;8.708;2024-03-08T13:45:08;9.50;1.00
8487;DHT22;4280;50.534;8.708;2024-03-08T13:47:40;9.60;1.00
8487;DHT22;4280;50.534;8.708;2024-03-08T13:50:10;9.50;1.00
8487;DHT22;4280;50.534;8.708;2024-03-08T13:52:43;9.60;1.00
8487;DHT22;4280;50.534;8.708;2024-03-08T13:55:10;9.50;1.00
8487;DHT22;4280;50.534;8.708;2024-03-08T13:57:37;9.60;1.00
8487;DHT22;4280;50.534;8.708;2024-03-08T14:00:03;9.70;1.00
8487;DHT22;4280;50.534;8.708;2024-03-08T14:02:32;9.80;1.00
8487;DHT22;4280;50.534;8.708;2024-03-08T14:04:59;9.70;1.00
8487;DHT22;4280;50.534;8.708;2024-03-08T14:07:27;9.80;1.00
8487;DHT22;4280;50.534;8.708;2024-03-08T14:09:54;9.80;1.00
8487;DHT22;4280;50.534;8.708;2024-03-08T14:12:20;10.00;1.00
8487;DHT22;4280;50.534;8.708;2024-03-08T14:14:46;10.10;1.00
8487;DHT22;4280;50.534;8.708;2024-03-08T14:17:11;9.80;1.00
8487;DHT22;4280;50.534;8.708;2024-03-08T14:19:42;9.80;1.00
8487;DHT22;4280;50.534;8.708;2024-03-08T14:22:08;10.00;1.00
8487;DHT22;4280;50.534;8.708;2024-03-08T14:24:36;10.10;1.00
8487;DHT22;4280;50.534;8.708;2024-03-08T14:27:03;9.90;1.00
8487;DHT22;4280;50.534;8.708;2024-03-08T14:29:29;9.90;1.00
8487;DHT22;4280;50.534;8.708;2024-03-08T14:31:58;9.90;1.00
8487;DHT22;4280;50.534;8.708;2024-03-08T14:34:25;9.90;1.00
8487;DHT22;4280;50.534;8.708;2024-03-08T14:36:55;9.80;1.00
8487;DHT22;4280;50.534;8.708;2024-03-08T14:39:21;9.80;1.00
8487;DHT22;4280;50.534;8.708;2024-03-08T14:41:49;9.90;1.00
8487;DHT22;4280;50.534;8.708;2024-03-08T14:44:19;9.90;1.00
8487;DHT22;4280;50.534;8.708;2024-03-08T14:46:45;10.00;1.00
8487;DHT22;4280;50.534;8.708;2024-03-08T14:49:12;9.90;1.00
8487;DHT22;4280;50.534;8.708;2024-03-08T14:51:38;10.00;1.00
8487;DHT22;4280;50.534;8.708;2024-03-08T14:54:04;10.00;1.00
8487;DHT22;4280;50.534;8.708;2024-03-08T14:56:34;9.90;1.00
8487;DHT22;4280;50.534;8.708;2024-03-08T14:59:00;10.00;1.00
8487;DHT22;4280;50.534;8.708;2024-03-08T15:01:26;9.90;1.00
8487;DHT22;4280;50.534;8.708;2024-03-08T15:03:55;9.90;1.00
8487;DHT22;4280;50.534;8.708;2024-03-08T15:06:21;10.00;1.00
8487;DHT22;4280;50.534;8.708;2024-03-08T15:08:47;10.00;1.00
8487;DHT22;4280;50.534;8.708;2024-03-08T15:11:13;10.00;1.00
8487;DHT22;4280;50.534;8.708;2024-03-08T15:13:49;10.00;1.00
8487;DHT22;4280;50.534;8.708;2024-03-08T15:16:18;10.00;1.00
8487;DHT22;4280;50.534;8.708;2024-03-08T15:18:45;10.00;1.00
8487;DHT22;4280;50.534;8.708;2024-03-08T15:21:14;10.00;1.00
8487;DHT22;4280;50.534;8.708;2024-03-08T15:23:45;10.00;1.00
8487;DHT22;4280;50.534;8.708;2024-03-08T15:26:19;10.00;1.00
8487;DHT22;4280;50.534;8.708;2024-03-08T15:28:45;10.00;1.00
8487;DHT22;4280;50.534;8.708;2024-03-08T15:31:13;10.00;1.00
8487;DHT22;4280;50.534;8.708;2024-03-08T15:33:42;10.00;1.00
8487;DHT22;4280;50.534;8.708;2024-03-08T15:36:13;10.00;1.00
8487;DHT22;4280;50.534;8.708;2024-03-08T15:38:41;10.00;1.00
8487;DHT22;4280;50.534;8.708;2024-03-08T15:41:12;10.00;1.00
8487;DHT22;4280;50.534;8.708;2024-03-08T15:43:39;10.00;1.00
8487;DHT22;4280;50.534;8.708;2024-03-08T15:46:06;10.00;1.00
8487;DHT22;4280;50.534;8.708;2024-03-08T15:48:33;10.00;1.00
8487;DHT22;4280;50.534;8.708;2024-03-08T15:51:01;10.10;1.00
8487;DHT22;4280;50.534;8.708;2024-03-08T15:53:37;10.10;1.00
8487;DHT22;4280;50.534;8.708;2024-03-08T15:56:04;9.90;1.00
8487;DHT22;4280;50.534;8.708;2024-03-08T15:58:34;10.00;1.00
8487;DHT22;4280;50.534;8.708;2024-03-08T16:01:01;10.00;1.00
8487;DHT22;4280;50.534;8.708;2024-03-08T16:03:31;10.00;1.00
8487;DHT22;4280;50.534;8.708;2024-03-08T16:05:58;10.00;1.00
8487;DHT22;4280;50.534;8.708;2024-03-08T16:08:24;9.90;1.00
8487;DHT22;4280;50.534;8.708;2024-03-08T16:10:52;9.90;1.00
8487;DHT22;4280;50.534;8.708;2024-03-08T16:13:21;9.90;1.00
8487;DHT22;4280;50.534;8.708;2024-03-08T16:15:55;9.90;1.00
8487;DHT22;4280;50.534;8.708;2024-03-08T16:18:22;9.80;1.00
8487;DHT22;4280;50.534;8.708;2024-03-08T16:20:53;9.80;1.00
8487;DHT22;4280;50.534;8.708;2024-03-08T16:23:20;9.80;1.00
8487;DHT22;4280;50.534;8.708;2024-03-08T16:25:46;9.80;1.00
8487;DHT22;4280;50.534;8.708;2024-03-08T16:28:13;9.70;1.00
8487;DHT22;4280;50.534;8.708;2024-03-08T16:30:40;9.80;1.00
8487;DHT22;4280;50.534;8.708;2024-03-08T16:33:14;9.70;1.00
8487;DHT22;4280;50.534;8.708;2024-03-08T16:35:41;9.70;1.00